Portada
METAR-TAF:

METAR-TAF

Aeroports :

Orlhac, França

latitud: 44-53N, longitud: 002-25E, altitud: 639 m

Observació

L'informe es va fer fa 40 minuts, a les 20:30 UTC
Vent 5 kt del Est
Temperatura 19°C
Humitat 64%
Pressió 1016 hPa
Visibilitat 10 km o més
sense núvols per sota de 1500 mi sense presència de cumulonimbus.

METAR: LFLW 192030Z AUTO 09005KT CAVOK 19/12 Q1016

Hora: 23:10 (21:10 UTC)

Pronòstic

L'informe es va fer fa 7 hores i 10 minuts, a les 14:00 UTC
Pronòstic vàlid del 19 a les 15 UTC al 19 a les 24 UTC
Vent 3 kt amb direcció variable
Visibilitat 10 km o més
sense núvols per sota de 1500 mi sense presència de cumulonimbus.

TAF: LFLW 191400Z 1915/1924 VRB03KT CAVOK

Observacions i pronòstics meteorològics de més de 4000 aeroports (METAR i TAF).

Les estacions disponibles són els punts grocs i vermells al mapa.

Posi el ratolí al punt desitjat per veure el nom de l'estació.

Feu clic per veure les observacions i els pronòstics meteorològics.

Per canviar el mapa: feu clic els botons verds amb una creu de color negre per apropar; al botó verd amb un guió per allunyar la imatge; o en les fletxes verdes per a mapes adjacents.


METAR-TAF: